Time,TemperatureF,DewpointF,PressureIn,WindDirection,WindDirectionDegrees,WindSpeedMPH,WindSpeedGustMPH,Humidity,HourlyPrecipIn,Conditions,Clouds,dailyrainin,SoftwareType,DateUTC
2013-12-13 00:10:00,46.3,36.0,30.27,South,169,5.0,7.0,67,0.00,,,0.00,weatherlink.com 1.10,2013-12-13 06:10:00,
2013-12-13 00:25:00,46.4,36.0,30.26,SSE,160,0.0,6.0,66,0.00,,,0.00,weatherlink.com 1.10,2013-12-13 06:25:00,
2013-12-13 00:40:00,46.3,36.0,30.25,SSE,160,0.0,4.0,67,0.00,,,0.00,weatherlink.com 1.10,2013-12-13 06:40:00,
2013-12-13 00:55:00,46.1,36.0,30.26,SSE,160,1.0,3.0,67,0.00,,,0.00,weatherlink.com 1.10,2013-12-13 06:55:00,
2013-12-13 01:10:00,46.1,36.0,30.25,SSE,160,0.0,0.0,68,0.00,,,0.00,weatherlink.com 1.10,2013-12-13 07:10:00,
2013-12-13 01:25:00,46.1,36.0,30.23,SSE,160,4.0,4.0,68,0.00,,,0.00,weatherlink.com 1.10,2013-12-13 07:25:00,
2013-12-13 01:40:00,46.4,36.0,30.23,SSE,160,3.0,6.0,67,0.00,,,0.00,weatherlink.com 1.10,2013-12-13 07:40:00,
2013-12-13 01:55:00,46.4,36.0,30.23,SSE,161,2.0,5.0,67,0.00,,,0.00,weatherlink.com 1.10,2013-12-13 07:55:00,
2013-12-13 02:10:00,46.3,36.0,30.24,SSE,161,2.0,5.0,68,0.00,,,0.00,weatherlink.com 1.10,2013-12-13 08:10:00,
2013-12-13 02:25:00,46.3,36.0,30.22,SSE,161,1.0,4.0,68,0.00,,,0.00,weatherlink.com 1.10,2013-12-13 08:25:00,
2013-12-13 02:40:00,46.3,37.0,30.21,SSE,161,0.0,2.0,69,0.00,,,0.00,weatherlink.com 1.10,2013-12-13 08:40:00,
2013-12-13 02:55:00,46.3,37.0,30.20,SSE,161,1.0,3.0,69,0.00,,,0.00,weatherlink.com 1.10,2013-12-13 08:55:00,
2013-12-13 03:10:00,46.3,37.0,30.18,SSE,161,1.0,4.0,69,0.00,,,0.00,weatherlink.com 1.10,2013-12-13 09:10:00,
2013-12-13 03:25:00,46.4,37.0,30.18,SSE,161,2.0,4.0,69,0.00,,,0.00,weatherlink.com 1.10,2013-12-13 09:25:00,
2013-12-13 03:40:00,46.4,37.0,30.17,SSE,161,2.0,3.0,69,0.00,,,0.00,weatherlink.com 1.10,2013-12-13 09:40:00,
2013-12-13 03:55:00,46.4,36.0,30.16,SSE,161,2.0,4.0,67,0.00,,,0.00,weatherlink.com 1.10,2013-12-13 09:55:00,
2013-12-13 04:11:00,46.5,36.0,30.16,SSE,161,4.0,6.0,66,0.00,,,0.00,weatherlink.com 1.10,2013-12-13 10:11:00,
2013-12-13 04:26:00,46.4,36.0,30.15,SSE,161,1.0,5.0,66,0.00,,,0.00,weatherlink.com 1.10,2013-12-13 10:26:00,
2013-12-13 04:41:00,46.4,35.0,30.14,SSE,161,3.0,4.0,65,0.00,,,0.00,weatherlink.com 1.10,2013-12-13 10:41:00,
2013-12-13 04:56:00,46.3,35.0,30.12,SSE,161,1.0,4.0,65,0.00,,,0.00,weatherlink.com 1.10,2013-12-13 10:56:00,
2013-12-13 05:11:00,46.1,35.0,30.12,SSE,161,2.0,4.0,65,0.00,,,0.00,weatherlink.com 1.10,2013-12-13 11:11:00,
2013-12-13 05:26:00,46.0,35.0,30.10,SSE,161,2.0,4.0,66,0.00,,,0.00,weatherlink.com 1.10,2013-12-13 11:26:00,
2013-12-13 05:41:00,45.9,35.0,30.09,SSE,161,2.0,4.0,66,0.00,,,0.00,weatherlink.com 1.10,2013-12-13 11:41:00,
2013-12-13 05:56:00,45.8,35.0,30.10,SSE,161,0.0,1.0,66,0.00,,,0.00,weatherlink.com 1.10,2013-12-13 11:56:00,
2013-12-13 06:11:00,45.8,35.0,30.10,SSE,161,0.0,2.0,67,0.00,,,0.00,weatherlink.com 1.10,2013-12-13 12:11:00,
2013-12-13 06:26:00,45.7,36.0,30.10,SSE,161,1.0,3.0,68,0.00,,,0.00,weatherlink.com 1.10,2013-12-13 12:26:00,
2013-12-13 06:41:00,45.4,36.0,30.10,SSE,161,4.0,5.0,71,0.00,,,0.00,weatherlink.com 1.10,2013-12-13 12:41:00,
2013-12-13 06:56:00,43.5,38.0,30.08,SSE,160,3.0,10.0,81,0.04,,,0.04,weatherlink.com 1.10,2013-12-13 12:56:00,
2013-12-13 07:11:00,42.3,38.0,30.04,SSE,160,0.0,7.0,86,0.07,,,0.07,weatherlink.com 1.10,2013-12-13 13:11:00,
2013-12-13 07:26:00,41.9,39.0,30.07,SSE,160,0.0,1.0,88,0.09,,,0.09,weatherlink.com 1.10,2013-12-13 13:26:00,
2013-12-13 07:41:00,41.8,39.0,30.08,SSE,160,1.0,2.0,89,0.10,,,0.10,weatherlink.com 1.10,2013-12-13 13:41:00,
2013-12-13 07:56:00,42.0,39.0,30.08,SSE,160,0.0,0.0,90,0.06,,,0.10,weatherlink.com 1.10,2013-12-13 13:56:00,
2013-12-13 08:11:00,42.3,40.0,30.07,SSE,160,0.0,0.0,91,0.03,,,0.10,weatherlink.com 1.10,2013-12-13 14:11:00,
2013-12-13 08:26:00,42.4,40.0,30.06,SSE,160,0.0,0.0,91,0.01,,,0.10,weatherlink.com 1.10,2013-12-13 14:26:00,
2013-12-13 08:41:00,42.8,40.0,30.07,SSE,160,0.0,0.0,91,0.00,,,0.10,weatherlink.com 1.10,2013-12-13 14:41:00,
2013-12-13 08:56:00,42.9,41.0,30.07,SSE,160,0.0,0.0,91,0.00,,,0.10,weatherlink.com 1.10,2013-12-13 14:56:00,
2013-12-13 09:11:00,43.4,41.0,30.06,SSE,160,0.0,0.0,91,0.00,,,0.10,weatherlink.com 1.10,2013-12-13 15:11:00,
2013-12-13 09:26:00,43.6,41.0,30.06,SSE,160,0.0,0.0,89,0.00,,,0.10,weatherlink.com 1.10,2013-12-13 15:26:00,
2013-12-13 09:41:00,44.1,41.0,30.05,SSE,160,0.0,0.0,90,0.00,,,0.10,weatherlink.com 1.10,2013-12-13 15:41:00,
2013-12-13 09:56:00,44.3,41.0,30.05,SSE,160,0.0,0.0,89,0.00,,,0.10,weatherlink.com 1.10,2013-12-13 15:56:00,
2013-12-13 10:11:00,44.6,41.0,30.05,SSE,160,0.0,0.0,88,0.00,,,0.10,weatherlink.com 1.10,2013-12-13 16:11:00,
2013-12-13 10:26:00,45.1,42.0,30.04,SSE,160,0.0,0.0,89,0.00,,,0.10,weatherlink.com 1.10,2013-12-13 16:26:00,
2013-12-13 10:41:00,45.4,42.0,30.05,SSE,160,0.0,0.0,89,0.00,,,0.10,weatherlink.com 1.10,2013-12-13 16:41:00,
2013-12-13 10:56:00,45.4,43.0,30.04,SSE,160,0.0,2.0,90,0.00,,,0.10,weatherlink.com 1.10,2013-12-13 16:56:00,
2013-12-13 11:11:00,45.2,43.0,30.04,SSE,160,0.0,1.0,90,0.00,,,0.10,weatherlink.com 1.10,2013-12-13 17:11:00,
2013-12-13 11:26:00,45.3,43.0,30.02,SSE,160,0.0,0.0,91,0.00,,,0.10,weatherlink.com 1.10,2013-12-13 17:26:00,
2013-12-13 11:41:00,45.6,43.0,30.00,SSE,161,1.0,1.0,91,0.00,,,0.10,weatherlink.com 1.10,2013-12-13 17:41:00,
2013-12-13 11:56:00,45.7,43.0,29.99,SSE,160,0.0,3.0,91,0.00,,,0.10,weatherlink.com 1.10,2013-12-13 17:56:00,
2013-12-13 12:11:00,45.9,43.0,29.98,SSE,160,0.0,1.0,90,0.00,,,0.10,weatherlink.com 1.10,2013-12-13 18:11:00,
2013-12-13 12:26:00,46.5,44.0,29.96,SSE,160,0.0,1.0,90,0.00,,,0.10,weatherlink.com 1.10,2013-12-13 18:26:00,
2013-12-13 12:41:00,47.8,45.0,29.95,SSE,160,1.0,3.0,88,0.00,,,0.10,weatherlink.com 1.10,2013-12-13 18:41:00,
2013-12-13 12:56:00,48.7,45.0,29.93,SSE,160,0.0,3.0,86,0.00,,,0.10,weatherlink.com 1.10,2013-12-13 18:56:00,
2013-12-13 13:12:00,49.4,45.0,29.90,SSE,160,2.0,4.0,86,0.00,,,0.10,weatherlink.com 1.10,2013-12-13 19:12:00,
2013-12-13 13:27:00,50.0,46.0,29.89,SSE,160,0.0,5.0,85,0.00,,,0.10,weatherlink.com 1.10,2013-12-13 19:27:00,
2013-12-13 13:42:00,51.0,47.0,29.88,SSW,201,5.0,7.0,85,0.00,,,0.10,weatherlink.com 1.10,2013-12-13 19:42:00,
2013-12-13 13:57:00,51.5,47.0,29.87,SSW,202,1.0,6.0,84,0.00,,,0.10,weatherlink.com 1.10,2013-12-13 19:57:00,
2013-12-13 14:12:00,51.8,48.0,29.86,SSW,202,2.0,6.0,85,0.00,,,0.10,weatherlink.com 1.10,2013-12-13 20:12:00,
2013-12-13 14:27:00,52.3,48.0,29.86,SSW,202,0.0,6.0,85,0.00,,,0.10,weatherlink.com 1.10,2013-12-13 20:27:00,
2013-12-13 14:42:00,52.6,48.0,29.87,SSW,204,2.0,6.0,85,0.00,,,0.10,weatherlink.com 1.10,2013-12-13 20:42:00,
2013-12-13 14:57:00,52.6,48.0,29.89,SSW,205,2.0,5.0,85,0.00,,,0.10,weatherlink.com 1.10,2013-12-13 20:57:00,
2013-12-13 15:12:00,53.1,49.0,29.88,SSW,205,4.0,7.0,87,0.00,,,0.10,weatherlink.com 1.10,2013-12-13 21:12:00,
2013-12-13 15:27:00,53.8,50.0,29.88,SSW,205,0.0,4.0,86,0.00,,,0.10,weatherlink.com 1.10,2013-12-13 21:27:00,
2013-12-13 15:42:00,54.0,50.0,29.87,SSW,205,1.0,2.0,86,0.00,,,0.10,weatherlink.com 1.10,2013-12-13 21:42:00,
2013-12-13 15:57:00,54.4,50.0,29.86,SSW,205,1.0,6.0,86,0.00,,,0.10,weatherlink.com 1.10,2013-12-13 21:57:00,
2013-12-13 16:12:00,54.7,50.0,29.86,SSW,205,2.0,4.0,85,0.00,,,0.10,weatherlink.com 1.10,2013-12-13 22:12:00,
2013-12-13 16:27:00,54.6,50.0,29.85,SSW,205,3.0,5.0,85,0.00,,,0.10,weatherlink.com 1.10,2013-12-13 22:27:00,
2013-12-13 16:42:00,54.4,50.0,29.85,SSW,204,3.0,7.0,86,0.00,,,0.10,weatherlink.com 1.10,2013-12-13 22:42:00,
2013-12-13 16:57:00,54.2,50.0,29.84,SSW,204,2.0,6.0,86,0.00,,,0.10,weatherlink.com 1.10,2013-12-13 22:57:00,
2013-12-13 17:12:00,53.7,50.0,29.83,SSW,204,1.0,5.0,87,0.00,,,0.10,weatherlink.com 1.10,2013-12-13 23:12:00,
2013-12-13 17:27:00,53.3,50.0,29.84,SSW,204,0.0,0.0,87,0.00,,,0.10,weatherlink.com 1.10,2013-12-13 23:27:00,
2013-12-13 17:42:00,52.5,49.0,29.83,SSW,204,0.0,0.0,88,0.00,,,0.10,weatherlink.com 1.10,2013-12-13 23:42:00,
2013-12-13 17:57:00,51.3,48.0,29.85,SSW,204,0.0,0.0,89,0.00,,,0.10,weatherlink.com 1.10,2013-12-13 23:57:00,
2013-12-13 18:12:00,50.0,47.0,29.85,SSW,204,0.0,0.0,89,0.00,,,0.10,weatherlink.com 1.10,2013-12-14 00:12:00,
2013-12-13 18:27:00,48.8,46.0,29.84,SSW,204,0.0,0.0,90,0.00,,,0.10,weatherlink.com 1.10,2013-12-14 00:27:00,
2013-12-13 18:42:00,48.6,46.0,29.84,SSW,204,0.0,0.0,92,0.00,,,0.10,weatherlink.com 1.10,2013-12-14 00:42:00,
2013-12-13 18:57:00,48.0,46.0,29.84,SSW,204,0.0,0.0,92,0.00,,,0.10,weatherlink.com 1.10,2013-12-14 00:57:00,
2013-12-13 19:12:00,48.3,46.0,29.84,SSW,204,0.0,0.0,93,0.00,,,0.10,weatherlink.com 1.10,2013-12-14 01:12:00,
2013-12-13 19:27:00,48.2,46.0,29.84,SSW,204,0.0,1.0,93,0.00,,,0.10,weatherlink.com 1.10,2013-12-14 01:27:00,
2013-12-13 19:42:00,47.7,46.0,29.85,SSW,204,1.0,1.0,93,0.00,,,0.10,weatherlink.com 1.10,2013-12-14 01:42:00,
2013-12-13 19:57:00,46.8,45.0,29.86,SSW,204,0.0,0.0,93,0.00,,,0.10,weatherlink.com 1.10,2013-12-14 01:57:00,
2013-12-13 20:12:00,45.9,44.0,29.86,SSW,204,0.0,0.0,93,0.00,,,0.10,weatherlink.com 1.10,2013-12-14 02:12:00,
2013-12-13 20:27:00,45.0,43.0,29.86,SSW,204,0.0,0.0,92,0.00,,,0.10,weatherlink.com 1.10,2013-12-14 02:27:00,
2013-12-13 20:42:00,44.3,42.0,29.86,SSW,204,0.0,0.0,93,0.00,,,0.10,weatherlink.com 1.10,2013-12-14 02:42:00,
2013-12-13 20:57:00,43.9,42.0,29.86,SSW,204,0.0,0.0,93,0.00,,,0.10,weatherlink.com 1.10,2013-12-14 02:57:00,
2013-12-13 21:12:00,43.5,42.0,29.86,SSW,204,0.0,0.0,94,0.00,,,0.10,weatherlink.com 1.10,2013-12-14 03:12:00,
2013-12-13 21:27:00,43.4,42.0,29.86,SSW,204,0.0,0.0,94,0.00,,,0.10,weatherlink.com 1.10,2013-12-14 03:27:00,
2013-12-13 21:42:00,43.1,41.0,29.86,SSW,204,0.0,0.0,93,0.00,,,0.10,weatherlink.com 1.10,2013-12-14 03:42:00,
2013-12-13 21:57:00,43.9,43.0,29.86,SSW,204,0.0,0.0,95,0.00,,,0.10,weatherlink.com 1.10,2013-12-14 03:57:00,
2013-12-13 22:12:00,44.5,43.0,29.87,SSW,204,0.0,0.0,95,0.00,,,0.10,weatherlink.com 1.10,2013-12-14 04:12:00,
2013-12-13 22:27:00,43.1,42.0,29.87,SSW,204,0.0,0.0,94,0.00,,,0.10,weatherlink.com 1.10,2013-12-14 04:27:00,
2013-12-13 22:42:00,43.1,42.0,29.88,SSW,204,0.0,0.0,95,0.00,,,0.10,weatherlink.com 1.10,2013-12-14 04:42:00,
2013-12-13 22:57:00,42.3,41.0,29.88,SSW,204,0.0,0.0,94,0.00,,,0.10,weatherlink.com 1.10,2013-12-14 04:57:00,
2013-12-13 23:12:00,42.1,41.0,29.87,SSW,204,0.0,0.0,94,0.00,,,0.10,weatherlink.com 1.10,2013-12-14 05:12:00,
2013-12-13 23:27:00,42.2,41.0,29.88,SSW,204,0.0,2.0,95,0.00,,,0.10,weatherlink.com 1.10,2013-12-14 05:27:00,
2013-12-13 23:42:00,42.2,41.0,29.87,SSW,204,0.0,1.0,95,0.00,,,0.10,weatherlink.com 1.10,2013-12-14 05:42:00,
2013-12-13 23:57:00,41.5,40.0,29.87,SSW,204,1.0,1.0,94,0.00,,,0.10,weatherlink.com 1.10,2013-12-14 05:57:00,